createdAt,value
2022-09-20T00:01:33.969Z,36.65
2022-09-20T00:04:05.523Z,33.70
2022-09-20T00:06:34.835Z,32.67
2022-09-20T00:09:03.499Z,34.67
2022-09-20T00:11:34.043Z,30.08
2022-09-20T00:14:08.503Z,32.33
2022-09-20T00:16:39.390Z,32.40
2022-09-20T00:19:07.948Z,34.97
2022-09-20T00:21:37.720Z,34.92
2022-09-20T00:24:06.093Z,31.35
2022-09-20T00:26:34.465Z,33.05
2022-09-20T00:29:02.319Z,32.40
2022-09-20T00:31:29.946Z,35.08
2022-09-20T00:34:17.493Z,30.95
2022-09-20T00:36:45.746Z,33.78
2022-09-20T00:39:15.274Z,32.80
2022-09-20T00:41:43.715Z,35.75
2022-09-20T00:44:41.009Z,30.73
2022-09-20T00:47:16.933Z,34.47
2022-09-20T00:49:45.207Z,36.22
2022-09-20T00:52:13.247Z,33.97
2022-09-20T00:54:41.259Z,36.35
2022-09-20T00:57:08.850Z,35.58
2022-09-20T00:59:40.252Z,31.80
2022-09-20T01:02:18.101Z,31.25
2022-09-20T01:04:48.250Z,38.55
2022-09-20T01:07:22.361Z,39.20
2022-09-20T01:09:50.882Z,30.88
2022-09-20T01:12:26.545Z,35.05
2022-09-20T01:14:55.339Z,34.88
2022-09-20T01:17:25.956Z,36.08
2022-09-20T01:20:14.043Z,36.83
2022-09-20T01:23:06.755Z,37.88
2022-09-20T01:26:29.102Z,38.03
2022-09-20T01:29:24.814Z,36.10
2022-09-20T01:31:57.070Z,37.10
2022-09-20T01:34:37.595Z,36.92
2022-09-20T01:37:38.783Z,34.05
2022-09-20T01:40:34.229Z,36.15
2022-09-20T01:43:15.335Z,34.53
2022-09-20T01:45:49.170Z,35.88
2022-09-20T01:48:39.175Z,36.33
2022-09-20T01:51:42.370Z,34.67
2022-09-20T01:54:37.465Z,34.30
2022-09-20T01:57:32.546Z,35.90
2022-09-20T02:00:26.479Z,34.80
2022-09-20T02:03:26.452Z,38.65
2022-09-20T02:06:00.248Z,36.53
2022-09-20T02:08:44.101Z,33.45
2022-09-20T02:11:21.508Z,40.40
2022-09-20T02:14:13.892Z,37.50
2022-09-20T02:17:03.535Z,37.30
2022-09-20T02:19:46.680Z,45.47
2022-09-20T02:22:45.257Z,45.40
2022-09-20T02:25:43.384Z,39.55
2022-09-20T02:28:28.967Z,39.38
2022-09-20T02:31:14.198Z,38.45
2022-09-20T02:33:57.284Z,39.33
2022-09-20T02:37:00.645Z,37.75
2022-09-20T02:39:59.587Z,45.55
2022-09-20T02:42:35.925Z,41.58
2022-09-20T02:45:25.923Z,39.53
2022-09-20T02:48:00.681Z,42.50
2022-09-20T02:51:08.691Z,41.78
2022-09-20T02:53:52.921Z,46.00
2022-09-20T02:56:55.659Z,43.92
2022-09-20T03:00:06.099Z,44.60
2022-09-20T03:02:52.119Z,46.58
2022-09-20T03:05:30.649Z,54.38
2022-09-20T03:08:33.859Z,43.20
2022-09-20T03:11:18.582Z,40.83
2022-09-20T03:14:23.141Z,40.90
2022-09-20T03:17:28.171Z,44.63
2022-09-20T03:20:08.615Z,41.33
2022-09-20T03:23:23.648Z,40.08
2022-09-20T03:26:00.386Z,47.47
2022-09-20T03:28:38.553Z,47.00
2022-09-20T03:31:33.688Z,51.45
2022-09-20T03:34:22.872Z,40.95
2022-09-20T03:37:15.734Z,40.78
2022-09-20T03:40:10.154Z,46.22
2022-09-20T03:42:47.126Z,49.65
2022-09-20T03:45:55.243Z,48.83
2022-09-20T03:48:43.765Z,45.33
2022-09-20T03:51:33.609Z,47.22
2022-09-20T03:54:41.768Z,42.05
2022-09-20T03:57:15.935Z,45.78
2022-09-20T04:02:29.794Z,47.65
2022-09-20T04:05:07.633Z,43.72
2022-09-20T04:08:00.085Z,42.78
2022-09-20T04:10:54.597Z,44.63
2022-09-20T04:13:55.064Z,38.42
2022-09-20T04:16:46.671Z,48.13
2022-09-20T04:19:33.286Z,48.90
2022-09-20T04:22:02.218Z,40.72
2022-09-20T04:24:53.364Z,40.40
2022-09-20T04:27:26.466Z,39.45
2022-09-20T04:30:05.364Z,44.42
2022-09-20T04:32:58.512Z,40.35
2022-09-20T04:35:53.848Z,41.60
2022-09-20T04:38:22.744Z,43.50
2022-09-20T04:41:09.385Z,42.17
2022-09-20T04:43:51.181Z,41.67
2022-09-20T04:46:55.902Z,40.15
2022-09-20T04:49:50.018Z,37.33
2022-09-20T04:52:23.832Z,42.88
2022-09-20T04:54:57.115Z,44.70
2022-09-20T04:57:27.657Z,39.22
2022-09-20T05:00:16.781Z,40.78
2022-09-20T05:03:20.924Z,44.10
2022-09-20T05:06:13.678Z,40.03
2022-09-20T05:09:17.695Z,46.40
2022-09-20T05:12:02.949Z,43.47
2022-09-20T05:14:36.706Z,43.25
2022-09-20T05:17:22.899Z,49.63
2022-09-20T05:20:05.410Z,49.83
2022-09-20T05:23:00.696Z,50.15
2022-09-20T05:25:52.639Z,44.38
2022-09-20T05:28:45.858Z,44.53
2022-09-20T05:31:43.863Z,39.20
2022-09-20T05:34:24.430Z,35.65
2022-09-20T05:36:56.479Z,36.97
2022-09-20T05:39:36.964Z,33.25
2022-09-20T05:42:39.152Z,44.63
2022-09-20T05:45:25.531Z,38.38
2022-09-20T05:47:56.032Z,33.28
2022-09-20T05:50:45.451Z,35.70
2022-09-20T05:53:31.283Z,35.22
2022-09-20T05:56:29.827Z,32.30
2022-09-20T05:59:16.792Z,35.13
2022-09-20T06:02:08.204Z,31.92
2022-09-20T06:04:53.262Z,30.33
2022-09-20T06:07:59.266Z,30.73
2022-09-20T06:10:41.604Z,32.42
2022-09-20T06:13:22.845Z,29.35
2022-09-20T06:15:59.727Z,28.95
2022-09-20T06:18:51.549Z,29.15
2022-09-20T06:21:45.771Z,31.75
2022-09-20T06:24:37.398Z,29.25
2022-09-20T06:27:17.101Z,31.30
2022-09-20T06:29:56.042Z,30.17
2022-09-20T06:32:23.864Z,28.17
2022-09-20T06:34:52.224Z,29.25
2022-09-20T06:37:58.500Z,28.55
2022-09-20T06:40:50.697Z,24.33
2022-09-20T06:43:19.396Z,25.20
2022-09-20T06:45:48.028Z,24.55
2022-09-20T06:48:15.985Z,25.65
2022-09-20T06:50:45.327Z,21.75
2022-09-20T06:53:19.287Z,22.15
2022-09-20T06:55:48.021Z,23.70
2022-09-20T06:58:15.926Z,22.05
2022-09-20T07:00:43.569Z,22.27
2022-09-20T07:03:13.074Z,21.50
2022-09-20T07:05:41.006Z,21.75
2022-09-20T07:08:08.661Z,18.67
2022-09-20T07:10:36.326Z,17.00
2022-09-20T07:13:04.178Z,16.20
2022-09-20T07:15:33.511Z,15.88
2022-09-20T07:18:01.610Z,20.00
2022-09-20T07:20:29.509Z,21.33
2022-09-20T07:22:57.216Z,18.92
2022-09-20T07:25:24.945Z,19.40
2022-09-20T07:27:52.886Z,20.55
2022-09-20T07:30:21.597Z,20.48
2022-09-20T07:32:50.039Z,18.20
2022-09-20T07:35:18.117Z,19.00
2022-09-20T07:37:46.946Z,19.05
2022-09-20T07:40:14.942Z,18.63
2022-09-20T07:42:42.802Z,23.42
2022-09-20T07:45:12.845Z,18.17
2022-09-20T07:47:42.103Z,14.73
2022-09-20T07:50:11.235Z,12.43
2022-09-20T07:52:39.004Z,14.00
2022-09-20T07:55:07.084Z,16.30
2022-09-20T07:57:38.726Z,14.27
2022-09-20T08:00:08.524Z,17.33
2022-09-20T08:02:40.456Z,19.70
2022-09-20T08:05:08.566Z,12.32
2022-09-20T08:07:36.471Z,10.95
2022-09-20T08:10:05.256Z,14.07
2022-09-20T08:15:21.106Z,12.13
2022-09-20T08:17:49.343Z,14.57
2022-09-20T08:20:17.030Z,13.00
2022-09-20T08:22:49.828Z,14.30
2022-09-20T08:25:24.122Z,12.63
2022-09-20T08:27:55.060Z,17.85
2022-09-20T08:30:27.532Z,15.40
2022-09-20T08:32:56.121Z,17.65
2022-09-20T08:35:25.409Z,15.23
2022-09-20T08:37:56.146Z,15.75
2022-09-20T08:40:25.424Z,13.60
2022-09-20T08:42:54.783Z,14.93
2022-09-20T08:45:41.395Z,11.85
2022-09-20T08:48:17.079Z,13.05
2022-09-20T08:50:44.698Z,13.68
2022-09-20T08:53:14.933Z,13.13
2022-09-20T08:55:43.562Z,16.35
2022-09-20T08:58:14.229Z,15.48
2022-09-20T09:00:46.905Z,16.50
2022-09-20T09:03:17.228Z,14.15
2022-09-20T09:05:58.165Z,11.88
2022-09-20T09:08:31.014Z,15.00
2022-09-20T09:11:08.452Z,13.95
2022-09-20T09:13:46.966Z,14.02
2022-09-20T09:16:23.041Z,18.67
2022-09-20T09:18:53.167Z,16.98
2022-09-20T09:21:24.693Z,15.70
2022-09-20T09:24:06.149Z,13.88
2022-09-20T09:26:40.065Z,15.65
2022-09-20T09:29:20.137Z,14.00
2022-09-20T09:31:50.660Z,12.93
2022-09-20T09:34:38.811Z,15.57
2022-09-20T09:37:24.141Z,14.40
2022-09-20T09:40:18.957Z,21.80
2022-09-20T09:42:52.238Z,12.98
2022-09-20T09:45:38.706Z,10.90
2022-09-20T09:48:31.164Z,10.88
2022-09-20T09:51:19.357Z,10.70
2022-09-20T09:53:50.915Z,13.50
2022-09-20T09:56:49.801Z,9.23
2022-09-20T09:59:23.498Z,10.05
2022-09-20T10:02:19.348Z,7.72
2022-09-20T10:04:58.004Z,7.72
2022-09-20T10:07:47.744Z,7.22
2022-09-20T10:10:53.829Z,9.40
2022-09-20T10:13:41.205Z,8.13
2022-09-20T10:16:21.067Z,9.27
2022-09-20T10:18:57.654Z,6.93
2022-09-20T10:21:56.970Z,7.50
2022-09-20T10:25:18.381Z,23.50
2022-09-20T10:27:54.508Z,9.15
2022-09-20T10:30:27.294Z,9.27
2022-09-20T10:32:55.289Z,9.48
2022-09-20T10:35:35.146Z,12.98
2022-09-20T10:38:23.602Z,12.38
2022-09-20T10:41:44.821Z,13.48
2022-09-20T10:44:22.268Z,10.90
2022-09-20T10:47:06.250Z,13.45
2022-09-20T10:52:54.630Z,11.70
2022-09-20T10:58:20.165Z,11.48
2022-09-20T11:01:01.555Z,10.30
2022-09-20T11:03:57.520Z,9.43
2022-09-20T11:06:34.249Z,11.60
2022-09-20T11:09:05.606Z,12.27
2022-09-20T11:11:48.918Z,10.18
2022-09-20T11:14:23.181Z,8.98
2022-09-20T11:16:56.808Z,9.38
2022-09-20T11:19:45.923Z,10.07
2022-09-20T11:22:21.581Z,7.38
2022-09-20T11:25:20.007Z,7.22
2022-09-20T11:28:01.718Z,7.30
2022-09-20T11:30:33.893Z,6.82
2022-09-20T11:33:32.837Z,5.80
2022-09-20T11:36:04.429Z,6.88
2022-09-20T11:38:42.386Z,7.72
2022-09-20T11:41:39.895Z,7.00
2022-09-20T11:44:18.454Z,7.97
2022-09-20T11:47:04.608Z,15.98
2022-09-20T11:50:33.113Z,8.55
2022-09-20T11:53:42.357Z,8.15
2022-09-20T11:56:22.471Z,7.97
2022-09-20T11:58:59.354Z,8.02
2022-09-20T12:01:29.941Z,8.45
2022-09-20T12:04:31.879Z,7.47
2022-09-20T12:07:19.784Z,6.18
2022-09-20T12:09:58.193Z,6.63
2022-09-20T12:12:39.802Z,6.07
2022-09-20T12:15:25.722Z,7.05
2022-09-20T12:17:53.484Z,7.60
2022-09-20T12:20:34.333Z,8.90
2022-09-20T12:23:40.827Z,6.95
2022-09-20T12:26:38.570Z,9.45
2022-09-20T12:29:24.773Z,10.40
2022-09-20T12:31:58.064Z,7.32
2022-09-20T12:34:26.116Z,9.00
2022-09-20T12:36:57.052Z,7.03
2022-09-20T12:39:34.478Z,9.48
2022-09-20T12:42:02.309Z,6.93
2022-09-20T12:44:41.714Z,7.60
2022-09-20T12:47:12.279Z,8.23
2022-09-20T12:50:10.210Z,8.15
2022-09-20T12:53:04.244Z,5.13
2022-09-20T12:55:46.297Z,5.63
2022-09-20T12:58:14.487Z,6.00
2022-09-20T13:01:00.394Z,6.07
2022-09-20T13:03:47.023Z,5.90
2022-09-20T13:06:15.687Z,6.32
2022-09-20T13:09:04.532Z,4.28
2022-09-20T13:11:47.422Z,6.80
2022-09-20T13:14:31.980Z,8.18
2022-09-20T13:19:34.135Z,5.32
2022-09-20T13:22:04.460Z,8.98
2022-09-20T13:24:45.135Z,7.53
2022-09-20T13:27:21.131Z,6.47
2022-09-20T13:29:49.338Z,5.35
2022-09-20T13:32:28.194Z,8.38
2022-09-20T13:35:15.511Z,5.53
2022-09-20T13:37:57.181Z,6.00
2022-09-20T13:40:34.384Z,7.30
2022-09-20T13:43:37.266Z,5.93
2022-09-20T13:46:16.469Z,7.40
2022-09-20T13:48:47.579Z,7.45
2022-09-20T13:51:26.625Z,6.50
2022-09-20T13:54:14.486Z,5.78
2022-09-20T13:56:42.698Z,7.18
2022-09-20T13:59:19.308Z,7.07
2022-09-20T14:01:55.561Z,7.22
2022-09-20T14:04:26.500Z,5.88
2022-09-20T14:06:57.312Z,3.45
2022-09-20T14:09:35.879Z,3.08
2022-09-20T14:12:06.226Z,2.42
2022-09-20T14:14:35.099Z,3.22
2022-09-20T14:17:08.862Z,2.83
2022-09-20T14:22:17.611Z,1.85
2022-09-20T14:24:59.500Z,1.60
2022-09-20T14:27:27.649Z,1.92
2022-09-20T14:29:56.422Z,3.90
2022-09-20T14:32:43.068Z,2.50
2022-09-20T14:35:16.534Z,5.22
2022-09-20T14:37:57.027Z,3.35
2022-09-20T14:40:31.525Z,7.47
2022-09-20T14:43:05.338Z,5.10
2022-09-20T14:45:39.022Z,3.67
2022-09-20T14:48:11.335Z,5.73
2022-09-20T14:50:43.749Z,4.75
2022-09-20T14:53:11.262Z,2.58
2022-09-20T14:56:04.501Z,4.93
2022-09-20T14:58:33.123Z,3.35
2022-09-20T15:01:17.028Z,2.58
2022-09-20T15:03:44.905Z,3.97
2022-09-20T15:06:13.560Z,5.35
2022-09-20T15:08:46.367Z,5.55
2022-09-20T15:11:16.415Z,6.00
2022-09-20T15:13:44.321Z,9.23
2022-09-20T15:16:18.492Z,5.78
2022-09-20T15:18:46.695Z,4.40
2022-09-20T15:21:14.391Z,2.67
2022-09-20T15:23:42.239Z,3.60
2022-09-20T15:26:13.525Z,5.32
2022-09-20T15:28:41.394Z,7.07
2022-09-20T15:31:10.870Z,4.28
2022-09-20T15:33:38.756Z,3.80
2022-09-20T15:36:08.705Z,2.55
2022-09-20T15:38:36.316Z,2.47
2022-09-20T15:41:04.734Z,3.13
2022-09-20T15:43:33.725Z,3.00
2022-09-20T15:46:20.291Z,5.05
2022-09-20T15:48:48.227Z,6.15
2022-09-20T15:51:16.354Z,2.85
2022-09-20T15:53:55.825Z,5.32
2022-09-20T15:56:29.168Z,2.92
2022-09-20T15:58:59.380Z,3.28
2022-09-20T16:01:37.569Z,4.15
2022-09-20T16:04:09.901Z,3.88
2022-09-20T16:06:39.416Z,2.83
2022-09-20T16:09:08.328Z,2.72
2022-09-20T16:11:37.133Z,2.05
2022-09-20T16:14:05.137Z,2.28
2022-09-20T16:16:39.639Z,6.97
2022-09-20T16:19:20.919Z,3.55
2022-09-20T16:21:57.610Z,4.03
2022-09-20T16:24:27.835Z,5.38
2022-09-20T16:26:55.861Z,6.97
2022-09-20T16:29:25.648Z,4.00
2022-09-20T16:31:54.999Z,6.60
2022-09-20T16:34:30.800Z,4.32
2022-09-20T16:37:02.526Z,5.10
2022-09-20T16:39:31.839Z,5.93
2022-09-20T16:42:04.824Z,10.77
2022-09-20T16:44:35.176Z,15.90
2022-09-20T16:47:20.439Z,16.88
2022-09-20T16:49:48.557Z,21.42
2022-09-20T16:52:16.454Z,19.25
2022-09-20T16:54:44.113Z,25.88
2022-09-20T16:57:13.364Z,25.38
2022-09-20T16:59:41.323Z,30.58
2022-09-20T17:02:12.196Z,28.38
2022-09-20T17:04:40.314Z,27.55
2022-09-20T17:07:08.689Z,25.30
2022-09-20T17:09:36.272Z,26.30
2022-09-20T17:12:09.290Z,26.98
2022-09-20T17:14:37.336Z,32.03
2022-09-20T17:17:05.028Z,36.90
2022-09-20T17:19:33.411Z,31.60
2022-09-20T17:22:01.692Z,33.22
2022-09-20T17:24:30.254Z,28.88
2022-09-20T17:26:59.166Z,19.10
2022-09-20T17:29:27.689Z,21.08
2022-09-20T17:31:59.594Z,16.98
2022-09-20T17:34:29.430Z,15.13
2022-09-20T17:36:57.468Z,14.38
2022-09-20T17:39:25.336Z,14.63
2022-09-20T17:41:53.283Z,35.67
2022-09-20T17:44:21.047Z,28.40
2022-09-20T17:46:50.416Z,33.33
2022-09-20T17:49:21.589Z,30.42
2022-09-20T17:51:51.912Z,30.58
2022-09-20T17:54:20.586Z,34.42
2022-09-20T17:56:50.543Z,36.35
2022-09-20T17:59:19.958Z,30.30
2022-09-20T18:01:50.462Z,30.27
2022-09-20T18:04:20.894Z,30.65
2022-09-20T18:06:51.560Z,27.13
2022-09-20T18:09:21.772Z,27.95
2022-09-20T18:11:51.697Z,31.27
2022-09-20T18:14:23.300Z,40.13
2022-09-20T18:16:56.219Z,40.13
2022-09-20T18:19:24.385Z,39.63
2022-09-20T18:21:52.199Z,46.38
2022-09-20T18:24:19.917Z,58.63
2022-09-20T18:26:47.758Z,43.58
2022-09-20T18:29:18.876Z,57.75
2022-09-20T18:31:54.350Z,49.83
2022-09-20T18:34:24.672Z,50.65
2022-09-20T18:36:57.049Z,45.90
2022-09-20T18:39:32.448Z,44.80
2022-09-20T18:42:01.136Z,43.40
2022-09-20T18:44:32.879Z,39.30
2022-09-20T18:47:01.346Z,56.28
2022-09-20T18:49:30.317Z,60.65
2022-09-20T18:51:58.866Z,78.20
2022-09-20T18:54:30.189Z,72.18
2022-09-20T18:56:58.263Z,63.47
2022-09-20T18:59:27.419Z,54.88
2022-09-20T19:02:20.618Z,55.13
2022-09-20T19:05:00.055Z,56.17
2022-09-20T19:07:28.120Z,48.28
2022-09-20T19:10:05.915Z,45.78
2022-09-20T19:12:39.653Z,47.72
2022-09-20T19:15:10.271Z,50.85
2022-09-20T19:17:50.565Z,45.10
2022-09-20T19:20:48.317Z,46.22
2022-09-20T19:24:04.818Z,39.55
2022-09-20T19:26:38.279Z,41.30
2022-09-20T19:29:18.401Z,45.10
2022-09-20T19:31:49.857Z,51.20
2022-09-20T19:34:21.427Z,47.92
2022-09-20T19:36:58.465Z,42.90
2022-09-20T19:39:47.903Z,39.55
2022-09-20T19:43:13.800Z,32.58
2022-09-20T19:48:38.779Z,21.50
2022-09-20T19:51:10.903Z,18.98
2022-09-20T19:53:39.627Z,21.55
2022-09-20T19:56:25.781Z,21.52
2022-09-20T19:58:56.133Z,24.58
2022-09-20T20:01:25.480Z,31.73
2022-09-20T20:03:54.375Z,28.35
2022-09-20T20:06:40.898Z,31.15
2022-09-20T20:09:29.519Z,27.83
2022-09-20T20:12:26.023Z,28.30
2022-09-20T20:15:16.135Z,32.83
2022-09-20T20:18:04.042Z,39.97
2022-09-20T20:20:50.561Z,37.53
2022-09-20T20:23:30.065Z,28.35
2022-09-20T20:26:16.562Z,25.60
2022-09-20T20:28:44.588Z,25.38
2022-09-20T20:31:12.670Z,30.38
2022-09-20T20:33:40.791Z,24.33
2022-09-20T20:36:09.040Z,23.90
2022-09-20T20:38:37.647Z,20.88
2022-09-20T20:41:08.825Z,23.00
2022-09-20T20:43:39.000Z,23.27
2022-09-20T20:46:09.380Z,24.48
2022-09-20T20:48:37.185Z,20.88
2022-09-20T20:51:10.794Z,27.33
2022-09-20T20:53:41.196Z,23.00
2022-09-20T20:56:14.359Z,20.27
2022-09-20T20:58:43.751Z,24.38
2022-09-20T21:01:27.619Z,26.05
2022-09-20T21:03:57.117Z,22.17
2022-09-20T21:06:28.256Z,23.63
2022-09-20T21:08:56.713Z,25.33
2022-09-20T21:11:33.604Z,21.83
2022-09-20T21:14:03.597Z,20.13
2022-09-20T21:16:36.163Z,26.23
2022-09-20T21:19:05.851Z,21.70
2022-09-20T21:21:36.750Z,20.92
2022-09-20T21:24:09.507Z,21.08
2022-09-20T21:26:38.423Z,21.88
2022-09-20T21:29:10.014Z,22.23
2022-09-20T21:31:40.560Z,22.85
2022-09-20T21:34:10.089Z,22.80
2022-09-20T21:36:39.554Z,23.05
2022-09-20T21:39:07.442Z,23.98
2022-09-20T21:41:37.697Z,22.23
2022-09-20T21:44:07.319Z,25.40
2022-09-20T21:46:40.014Z,22.25
2022-09-20T21:49:09.864Z,23.75
2022-09-20T21:51:40.276Z,26.73
2022-09-20T21:54:08.057Z,26.25
2022-09-20T21:56:37.680Z,26.77
2022-09-20T21:59:07.613Z,25.15
2022-09-20T22:01:38.204Z,25.65
2022-09-20T22:04:11.164Z,24.65
2022-09-20T22:06:44.190Z,24.98
2022-09-20T22:09:14.485Z,22.92
2022-09-20T22:11:44.674Z,22.25
2022-09-20T22:14:13.502Z,27.15
2022-09-20T22:16:42.990Z,26.92
2022-09-20T22:19:13.236Z,22.77
2022-09-20T22:21:46.469Z,22.45
2022-09-20T22:24:15.599Z,23.90
2022-09-20T22:26:48.736Z,23.23
2022-09-20T22:29:17.556Z,24.23
2022-09-20T22:31:47.878Z,26.50
2022-09-20T22:34:18.403Z,24.60
2022-09-20T22:36:46.525Z,24.75
2022-09-20T22:39:15.028Z,23.58
2022-09-20T22:41:43.334Z,24.77
2022-09-20T22:44:12.081Z,24.00
2022-09-20T22:46:40.360Z,25.90
2022-09-20T22:49:09.440Z,25.60
2022-09-20T22:51:37.774Z,24.90
2022-09-20T22:54:08.686Z,26.02
2022-09-20T22:56:37.418Z,24.42
2022-09-20T22:59:11.302Z,25.33
2022-09-20T23:04:13.767Z,28.65
2022-09-20T23:06:43.403Z,24.85
2022-09-20T23:09:13.671Z,25.83
2022-09-20T23:11:42.698Z,28.15
2022-09-20T23:14:15.571Z,26.65
2022-09-20T23:16:44.413Z,28.15
2022-09-20T23:19:13.257Z,27.88
2022-09-20T23:21:42.645Z,25.20
2022-09-20T23:24:13.263Z,27.98
2022-09-20T23:26:41.987Z,26.05
2022-09-20T23:29:12.071Z,26.63
2022-09-20T23:31:45.530Z,28.08
2022-09-20T23:34:14.763Z,32.92
2022-09-20T23:36:43.207Z,30.15
2022-09-20T23:39:12.099Z,30.77
2022-09-20T23:41:41.205Z,33.65
2022-09-20T23:44:10.315Z,32.72
2022-09-20T23:46:38.872Z,36.60
2022-09-20T23:49:09.262Z,29.65
2022-09-20T23:51:37.717Z,32.03
2022-09-20T23:54:05.940Z,30.15
2022-09-20T23:56:33.629Z,31.98
2022-09-20T23:59:01.446Z,33.55
